Time;durP1;ratioP1;P1;durP2;ratioP2;P2;SDS_P1;SDS_P2;PMS_P1;PMS_P2;Temp;Humidity;BMP_temperature;BMP_pressure;BME280_temperature;BME280_humidity;BME280_pressure;Samples;Min_cycle;Max_cycle;Signal;HPM_P1;HPM_P2
2021/03/27 00:00:23;;;;;;;10.70;9.70;;;11.40;99.90;;;;;;5059947;28;20249;-78
2021/03/27 00:02:55;;;;;;;11.57;10.57;;;11.30;99.90;;;;;;5058512;28;20286;-78
2021/03/27 00:05:24;;;;;;;11.43;10.30;;;11.20;99.90;;;;;;5060598;28;20202;-79
2021/03/27 00:08:02;;;;;;;11.20;10.20;;;11.10;99.90;;;;;;5059064;28;20257;-78
2021/03/27 00:10:33;;;;;;;10.97;9.93;;;11.00;99.90;;;;;;5060162;28;20219;-78
2021/03/27 00:13:14;;;;;;;10.13;9.13;;;10.90;99.90;;;;;;5060410;28;20266;-79
2021/03/27 00:15:48;;;;;;;10.43;9.43;;;10.90;99.90;;;;;;5059689;28;20691;-78
2021/03/27 00:18:20;;;;;;;10.60;9.70;;;10.80;99.90;;;;;;5059329;28;20203;-78
2021/03/27 00:20:53;;;;;;;15.27;9.83;;;10.70;99.90;;;;;;5059950;28;20195;-79
2021/03/27 00:23:24;;;;;;;9.73;8.90;;;10.70;99.90;;;;;;5059611;28;20214;-78
2021/03/27 00:25:54;;;;;;;10.20;9.20;;;10.70;99.90;;;;;;5059364;28;20240;-78
2021/03/27 00:28:24;;;;;;;10.40;9.40;;;10.70;99.90;;;;;;5059227;28;20618;-78
2021/03/27 00:30:54;;;;;;;9.73;8.83;;;10.60;99.90;;;;;;5064980;28;20203;-78
2021/03/27 00:33:23;;;;;;;9.60;8.80;;;10.60;99.90;;;;;;5058734;28;20210;-78
2021/03/27 00:35:54;;;;;;;10.00;9.20;;;10.50;99.90;;;;;;5058446;28;20203;-79
2021/03/27 00:38:24;;;;;;;9.60;8.90;;;10.50;99.90;;;;;;5057971;28;20203;-78
2021/03/27 00:40:52;;;;;;;10.17;9.37;;;10.40;99.90;;;;;;5057338;28;20668;-79
2021/03/27 00:43:24;;;;;;;10.00;9.10;;;10.40;99.90;;;;;;5057846;28;20692;-79
2021/03/27 00:45:55;;;;;;;9.97;9.17;;;10.30;99.90;;;;;;5051581;28;20714;-78
2021/03/27 00:48:27;;;;;;;9.43;8.73;;;10.30;99.90;;;;;;5059361;28;20195;-79
2021/03/27 00:50:57;;;;;;;9.50;8.80;;;10.20;99.90;;;;;;5052786;28;20214;-79
2021/03/27 00:53:28;;;;;;;9.93;9.13;;;10.20;99.90;;;;;;5057362;28;20203;-78
2021/03/27 00:55:57;;;;;;;9.67;8.80;;;10.20;99.90;;;;;;5057249;28;20221;-78
2021/03/27 00:58:29;;;;;;;8.83;8.13;;;10.20;99.90;;;;;;5057008;28;20210;-79
2021/03/27 01:01:02;;;;;;;8.63;8.03;;;10.20;99.90;;;;;;5056571;28;20229;-78
2021/03/27 01:03:35;;;;;;;8.70;8.00;;;10.10;99.90;;;;;;5057976;28;20206;-78
2021/03/27 01:06:29;;;;;;;8.73;8.13;;;10.10;99.90;;;;;;5052685;22;20729;-80
2021/03/27 01:09:34;;;;;;;8.73;8.13;;;10.10;99.90;;;;;;4955493;29;20253;-80
2021/03/27 01:12:27;;;;;;;8.63;8.03;;;10.00;99.90;;;;;;5049531;28;20267;-80
2021/03/27 01:15:03;;;;;;;7.93;7.33;;;10.10;99.90;;;;;;5030509;28;20244;-80
2021/03/27 01:17:38;;;;;;;8.50;7.90;;;10.10;99.90;;;;;;5045032;28;20216;-80
2021/03/27 01:20:11;;;;;;;8.10;7.50;;;10.10;99.90;;;;;;5046784;28;20237;-79
2021/03/27 01:22:38;;;;;;;8.30;7.70;;;10.10;99.90;;;;;;5051757;28;20210;-80
2021/03/27 01:25:07;;;;;;;8.50;7.80;;;10.10;99.90;;;;;;5051696;28;20264;-80
2021/03/27 01:27:39;;;;;;;8.60;8.00;;;10.10;99.90;;;;;;5043396;28;20227;-80
2021/03/27 01:30:15;;;;;;;8.30;7.70;;;10.10;99.90;;;;;;5052603;28;20203;-80
2021/03/27 01:32:46;;;;;;;8.00;7.50;;;10.10;99.90;;;;;;5050709;28;20199;-80
2021/03/27 01:35:16;;;;;;;8.10;7.50;;;10.20;99.90;;;;;;5044304;28;20624;-80
2021/03/27 01:37:48;;;;;;;8.30;7.70;;;10.20;99.90;;;;;;5053492;28;20225;-80
2021/03/27 01:40:27;;;;;;;7.90;7.40;;;10.20;99.90;;;;;;5050235;28;20222;-80
2021/03/27 01:43:04;;;;;;;7.80;7.30;;;10.20;99.90;;;;;;5052531;28;20210;-80
2021/03/27 01:46:22;;;;;;;8.30;7.70;;;10.30;99.90;;;;;;5050816;28;20670;-80
2021/03/27 01:49:01;;;;;;;8.60;8.00;;;10.30;99.90;;;;;;5056390;28;20667;-80
2021/03/27 01:51:44;;;;;;;8.63;8.03;;;10.30;99.90;;;;;;5056383;28;20276;-80
2021/03/27 01:54:14;;;;;;;8.40;7.80;;;10.30;99.90;;;;;;5055434;28;20202;-80
2021/03/27 01:56:53;;;;;;;9.03;8.40;;;10.20;99.90;;;;;;5050601;28;20219;-80
2021/03/27 01:59:26;;;;;;;8.77;8.17;;;10.20;99.90;;;;;;5055158;28;20202;-80
2021/03/27 02:01:59;;;;;;;9.50;8.60;;;10.20;99.90;;;;;;5054207;28;20187;-80
2021/03/27 02:04:31;;;;;;;8.67;8.07;;;10.10;99.90;;;;;;5050918;28;20199;-80
2021/03/27 02:07:03;;;;;;;9.30;8.60;;;10.10;99.90;;;;;;5048051;28;20222;-80
2021/03/27 02:09:34;;;;;;;9.37;8.63;;;10.10;99.90;;;;;;5037849;28;20622;-79
2021/03/27 02:12:08;;;;;;;9.43;8.63;;;10.10;99.90;;;;;;5047350;28;20220;-79
2021/03/27 02:14:42;;;;;;;9.70;9.00;;;10.10;99.90;;;;;;5041466;28;20565;-80
2021/03/27 02:17:13;;;;;;;9.43;8.63;;;10.10;99.90;;;;;;5043971;28;20249;-81
2021/03/27 02:20:08;;;;;;;9.00;8.40;;;10.10;99.90;;;;;;5039618;28;20187;-80
2021/03/27 02:22:40;;;;;;;8.73;8.13;;;10.10;99.90;;;;;;5048149;28;20207;-81
2021/03/27 02:25:45;;;;;;;8.90;8.30;;;10.10;99.90;;;;;;5051681;28;20198;-80
2021/03/27 02:28:24;;;;;;;9.60;8.90;;;10.10;99.90;;;;;;5044515;28;20632;-80
2021/03/27 02:30:56;;;;;;;8.77;8.17;;;10.10;99.90;;;;;;5048291;28;20704;-79
2021/03/27 02:33:36;;;;;;;9.37;8.77;;;10.10;99.90;;;;;;5046091;28;20195;-81
2021/03/27 02:36:32;;;;;;;9.40;8.70;;;10.00;99.90;;;;;;5042176;28;20624;-80
2021/03/27 02:39:15;;;;;;;9.87;9.10;;;10.00;99.90;;;;;;5043977;28;20204;-81
2021/03/27 02:41:54;;;;;;;10.47;9.50;;;9.90;99.90;;;;;;5042805;28;20569;-80
2021/03/27 02:44:27;;;;;;;11.07;10.20;;;9.90;99.90;;;;;;5047747;28;20678;-80
2021/03/27 02:46:59;;;;;;;11.80;10.70;;;9.80;99.90;;;;;;5045413;28;20699;-81
2021/03/27 02:49:41;;;;;;;11.00;10.20;;;9.80;99.90;;;;;;5051638;28;20718;-80
2021/03/27 02:52:25;;;;;;;11.27;10.27;;;9.70;99.90;;;;;;5047556;28;20230;-81
2021/03/27 02:54:57;;;;;;;11.30;10.30;;;9.70;99.90;;;;;;5036817;28;20204;-81
2021/03/27 02:57:32;;;;;;;10.97;10.10;;;9.70;99.90;;;;;;5048346;28;20230;-81
2021/03/27 03:00:06;;;;;;;11.33;10.33;;;9.60;99.90;;;;;;5038766;28;20188;-81
2021/03/27 03:02:44;;;;;;;10.50;9.70;;;9.50;99.90;;;;;;5049284;28;20214;-80
2021/03/27 03:05:17;;;;;;;10.80;9.90;;;9.50;99.90;;;;;;5052362;28;20571;-80
2021/03/27 03:07:51;;;;;;;9.90;9.17;;;9.50;99.90;;;;;;5045198;28;20266;-80
2021/03/27 03:10:23;;;;;;;10.30;9.50;;;9.40;99.90;;;;;;5055560;28;20206;-80
2021/03/27 03:12:59;;;;;;;10.37;9.57;;;9.40;99.90;;;;;;5049801;28;20199;-81
2021/03/27 03:15:33;;;;;;;10.13;9.37;;;9.40;99.90;;;;;;5056321;28;20660;-80
2021/03/27 03:18:08;;;;;;;10.20;9.40;;;9.30;99.90;;;;;;5057703;28;20240;-81
2021/03/27 03:20:45;;;;;;;10.60;9.70;;;9.30;99.90;;;;;;5056207;28;20191;-80
2021/03/27 03:23:24;;;;;;;9.80;9.10;;;9.30;99.90;;;;;;5055470;28;20275;-80
2021/03/27 03:25:59;;;;;;;9.67;8.97;;;9.20;99.90;;;;;;5045215;28;20207;-80
2021/03/27 03:28:32;;;;;;;9.73;8.93;;;9.10;99.90;;;;;;5046249;28;20195;-80
2021/03/27 03:31:09;;;;;;;10.50;9.60;;;9.10;99.90;;;;;;5047219;28;20258;-80
2021/03/27 03:33:55;;;;;;;10.00;9.30;;;9.10;99.90;;;;;;5051452;28;20206;-80
2021/03/27 03:36:29;;;;;;;9.80;9.10;;;9.10;99.90;;;;;;5046482;28;20221;-80
2021/03/27 03:39:17;;;;;;;10.00;9.20;;;9.10;99.90;;;;;;5046227;28;20198;-80
2021/03/27 03:41:51;;;;;;;9.57;8.77;;;9.10;99.90;;;;;;5043403;28;20191;-80
2021/03/27 03:44:31;;;;;;;9.77;8.90;;;9.00;99.90;;;;;;5046832;28;20204;-81
2021/03/27 03:47:07;;;;;;;8.97;8.37;;;9.00;99.90;;;;;;5040425;28;20230;-80
2021/03/27 03:49:47;;;;;;;8.93;8.33;;;9.00;99.90;;;;;;5057381;28;20217;-80
2021/03/27 03:52:31;;;;;;;8.67;8.10;;;9.00;99.90;;;;;;5055731;28;20222;-77
2021/03/27 03:55:12;;;;;;;8.93;8.40;;;9.00;99.90;;;;;;5040526;28;20211;-78
2021/03/27 03:58:03;;;;;;;9.00;8.40;;;9.00;99.90;;;;;;5036156;28;20293;-80
2021/03/27 04:00:32;;;;;;;10.00;9.30;;;9.00;99.90;;;;;;5052925;28;20199;-78
2021/03/27 04:03:14;;;;;;;9.10;8.50;;;9.00;99.90;;;;;;5049844;28;20206;-79
2021/03/27 04:05:47;;;;;;;9.30;8.70;;;9.00;99.90;;;;;;5060245;28;20691;-79
2021/03/27 04:08:31;;;;;;;9.77;9.17;;;9.00;99.90;;;;;;5063093;28;20241;-79
2021/03/27 04:11:01;;;;;;;10.70;9.90;;;9.00;99.90;;;;;;5056176;28;20580;-81
2021/03/27 04:13:32;;;;;;;9.40;8.80;;;8.90;99.90;;;;;;5056202;28;20618;-79
2021/03/27 04:16:05;;;;;;;9.10;8.60;;;8.70;99.90;;;;;;5053641;28;20207;-79
2021/03/27 04:18:37;;;;;;;9.50;8.80;;;8.40;99.90;;;;;;5056437;28;20671;-80
2021/03/27 04:21:11;;;;;;;8.73;8.23;;;8.20;99.90;;;;;;5052267;28;20193;-80
2021/03/27 04:23:44;;;;;;;9.20;8.50;;;8.00;99.90;;;;;;5048086;28;20206;-80
2021/03/27 04:26:40;;;;;;;8.70;8.20;;;7.90;99.90;;;;;;5038556;28;20666;-78
2021/03/27 04:29:32;;;;;;;9.87;9.27;;;7.80;99.90;;;;;;5039703;28;20198;-79
2021/03/27 04:32:26;;;;;;;8.80;8.20;;;7.70;99.90;;;;;;5050912;28;20618;-78
2021/03/27 04:35:03;;;;;;;8.03;7.57;;;7.60;99.90;;;;;;5048802;28;20398;-79
2021/03/27 04:37:35;;;;;;;5.97;5.57;;;7.60;99.90;;;;;;5045286;28;20281;-79
2021/03/27 04:40:07;;;;;;;3.67;3.47;;;7.60;99.90;;;;;;5053777;28;20576;-77
2021/03/27 04:42:42;;;;;;;4.80;4.40;;;7.60;99.90;;;;;;5050580;28;20369;-79
2021/03/27 04:45:21;;;;;;;3.83;3.33;;;7.60;99.90;;;;;;5051260;28;20688;-80
2021/03/27 04:48:05;;;;;;;2.40;2.30;;;7.60;99.90;;;;;;5053578;28;20231;-79
2021/03/27 04:50:54;;;;;;;4.10;2.60;;;7.60;99.90;;;;;;5052951;28;20209;-78
2021/03/27 04:53:29;;;;;;;2.80;2.60;;;7.60;99.90;;;;;;5045580;28;20671;-78
2021/03/27 04:56:07;;;;;;;2.60;2.43;;;7.60;99.90;;;;;;5035223;28;20204;-79
2021/03/27 04:58:39;;;;;;;2.50;2.40;;;7.60;99.90;;;;;;5046349;28;20197;-78
2021/03/27 05:01:29;;;;;;;3.00;2.80;;;7.60;99.90;;;;;;5054151;28;20189;-78
2021/03/27 05:04:03;;;;;;;2.90;2.70;;;7.60;99.90;;;;;;5041153;28;20193;-80
2021/03/27 05:06:35;;;;;;;2.80;2.60;;;7.60;99.90;;;;;;5047795;28;20238;-79
2021/03/27 05:09:34;;;;;;;3.53;2.87;;;7.60;99.90;;;;;;5044819;28;20198;-79
2021/03/27 05:12:05;;;;;;;3.40;3.20;;;7.60;99.90;;;;;;5044742;28;20214;-80
2021/03/27 05:14:55;;;;;;;4.20;3.90;;;7.50;99.90;;;;;;5043058;28;20204;-78
2021/03/27 05:17:30;;;;;;;4.90;4.50;;;7.50;99.90;;;;;;5048278;28;20270;-79
2021/03/27 05:20:03;;;;;;;2.10;2.00;;;7.50;99.90;;;;;;5040737;28;20196;-79
2021/03/27 05:22:45;;;;;;;2.40;2.20;;;7.50;99.90;;;;;;5052578;28;20200;-79
2021/03/27 05:25:28;;;;;;;2.30;2.20;;;7.50;99.90;;;;;;5051470;28;20724;-78
2021/03/27 05:28:08;;;;;;;2.53;2.33;;;7.50;99.90;;;;;;5052971;28;20207;-79
2021/03/27 05:30:48;;;;;;;2.30;2.20;;;7.50;99.90;;;;;;5067206;28;20220;-82
2021/03/27 05:33:26;;;;;;;2.20;2.10;;;7.50;99.90;;;;;;5051221;28;20204;-81
2021/03/27 05:35:58;;;;;;;2.07;1.97;;;7.50;99.90;;;;;;5049469;28;20263;-78
2021/03/27 05:38:38;;;;;;;2.30;2.20;;;7.50;99.90;;;;;;5051219;28;20204;-79
2021/03/27 05:41:35;;;;;;;3.47;2.70;;;7.50;99.90;;;;;;5052372;28;20567;-79
2021/03/27 05:44:44;;;;;;;2.83;2.63;;;7.50;99.90;;;;;;5044049;28;20626;-78
2021/03/27 05:47:58;;;;;;;2.40;2.30;;;7.50;99.90;;;;;;5051006;28;20705;-77
2021/03/27 05:51:06;;;;;;;3.90;3.60;;;7.60;99.90;;;;;;5051539;28;20605;-78
2021/03/27 05:54:04;;;;;;;5.60;5.30;;;7.60;99.90;;;;;;5064741;28;20195;-77
2021/03/27 05:57:08;;;;;;;6.10;5.60;;;7.60;99.90;;;;;;5046792;28;20224;-78
2021/03/27 06:00:03;;;;;;;6.60;6.10;;;7.60;99.90;;;;;;5051312;28;20197;-75
2021/03/27 06:03:01;;;;;;;6.50;6.10;;;7.50;99.90;;;;;;5048087;28;20197;-78
2021/03/27 06:05:37;;;;;;;5.83;5.53;;;7.40;99.90;;;;;;5047483;28;20215;-78
2021/03/27 06:08:39;;;;;;;6.30;5.90;;;7.40;99.90;;;;;;5047368;28;20228;-76
2021/03/27 06:11:26;;;;;;;5.40;5.17;;;7.40;99.90;;;;;;5047271;28;20212;-79
2021/03/27 06:14:07;;;;;;;4.90;4.70;;;7.30;99.90;;;;;;5046130;28;20211;-82
2021/03/27 06:16:47;;;;;;;5.40;5.10;;;7.30;99.90;;;;;;5050031;28;20247;-81
2021/03/27 06:19:48;;;;;;;4.90;4.50;;;7.30;99.90;;;;;;5050360;28;20618;-78
2021/03/27 06:22:23;;;;;;;4.90;4.60;;;7.20;99.90;;;;;;5050708;28;20190;-79
2021/03/27 06:25:05;;;;;;;4.97;4.67;;;7.20;99.90;;;;;;5050547;28;20211;-79
2021/03/27 06:27:55;;;;;;;7.23;6.83;;;7.10;99.90;;;;;;5051804;28;20212;-78
2021/03/27 06:30:41;;;;;;;8.07;7.30;;;7.10;99.90;;;;;;5021058;28;20219;-78
2021/03/27 06:33:41;;;;;;;7.87;7.40;;;7.10;99.90;;;;;;5036453;28;20197;-78
2021/03/27 06:36:25;;;;;;;7.57;7.17;;;7.00;99.90;;;;;;5049981;28;20223;-78
2021/03/27 06:39:19;;;;;;;7.70;7.30;;;7.00;99.90;;;;;;5037368;28;20193;-77
2021/03/27 06:41:57;;;;;;;7.67;7.27;;;7.00;99.90;;;;;;5035519;28;20201;-78
2021/03/27 06:44:56;;;;;;;8.10;7.53;;;7.10;99.90;;;;;;5035322;28;20234;-78
2021/03/27 06:47:42;;;;;;;7.80;7.30;;;7.00;99.90;;;;;;5035537;28;20217;-78
2021/03/27 06:50:38;;;;;;;7.83;7.30;;;7.10;99.90;;;;;;5046507;28;20419;-78
2021/03/27 06:53:23;;;;;;;8.00;7.50;;;7.10;99.90;;;;;;5033751;28;20246;-79
2021/03/27 06:56:20;;;;;;;8.17;7.77;;;7.30;99.90;;;;;;5035653;28;20239;-78
2021/03/27 06:59:07;;;;;;;7.73;7.23;;;7.50;99.90;;;;;;5025931;28;20195;-76
2021/03/27 07:02:08;;;;;;;6.93;6.50;;;7.80;99.90;;;;;;5044583;28;20192;-78
2021/03/27 07:05:05;;;;;;;7.20;6.70;;;8.30;99.90;;;;;;5051370;28;20198;-78
2021/03/27 07:08:04;;;;;;;4.87;4.63;;;8.40;99.90;;;;;;5049353;28;20673;-78
2021/03/27 07:11:13;;;;;;;6.20;5.80;;;8.90;99.90;;;;;;5036195;28;20217;-79
2021/03/27 07:14:44;;;;;;;5.40;5.10;;;9.20;99.90;;;;;;5044459;28;20194;-78
2021/03/27 07:17:28;;;;;;;6.20;5.90;;;9.90;99.90;;;;;;5050153;28;20218;-80
2021/03/27 07:20:28;;;;;;;5.23;4.83;;;10.40;99.90;;;;;;5050079;28;20203;-79
2021/03/27 07:23:31;;;;;;;6.90;6.50;;;10.40;99.90;;;;;;5052110;28;20217;-81
2021/03/27 07:26:39;;;;;;;7.70;7.20;;;9.90;99.90;;;;;;5050114;28;20741;-80
2021/03/27 07:29:39;;;;;;;7.37;6.77;;;9.90;99.90;;;;;;5048846;28;20191;-81
2021/03/27 07:32:40;;;;;;;6.90;6.50;;;9.60;99.90;;;;;;5051810;28;20256;-80
2021/03/27 07:35:29;;;;;;;7.37;6.80;;;9.40;99.90;;;;;;5028460;28;20195;-79
2021/03/27 07:38:28;;;;;;;8.50;7.13;;;9.20;99.90;;;;;;5040297;28;20260;-80
2021/03/27 07:41:02;;;;;;;7.00;6.60;;;9.10;99.90;;;;;;5044265;28;20195;-80
2021/03/27 07:44:04;;;;;;;7.20;6.70;;;8.80;99.90;;;;;;5049184;28;20584;-80
2021/03/27 07:46:54;;;;;;;6.83;6.37;;;9.10;99.90;;;;;;5046702;28;20223;-77
2021/03/27 07:50:01;;;;;;;7.53;6.90;;;9.90;99.90;;;;;;5043894;28;20210;-80
2021/03/27 07:52:42;;;;;;;7.33;6.93;;;10.70;99.90;;;;;;5048735;28;20223;-79
2021/03/27 07:55:45;;;;;;;7.53;7.03;;;11.00;99.90;;;;;;5044096;28;20199;-79
2021/03/27 07:58:25;;;;;;;7.30;6.80;;;11.50;99.90;;;;;;5049902;28;20595;-79
2021/03/27 08:01:39;;;;;;;7.10;6.50;;;12.00;99.90;;;;;;5043279;28;20200;-80
2021/03/27 08:04:54;;;;;;;4.03;3.73;;;11.60;99.90;;;;;;5048758;28;20204;-80
2021/03/27 08:07:39;;;;;;;3.07;2.77;;;11.60;99.90;;;;;;5041427;28;20755;-80
2021/03/27 08:10:20;;;;;;;7.80;7.30;;;11.10;99.90;;;;;;5049425;28;20552;-78
2021/03/27 08:13:23;;;;;;;6.73;6.27;;;10.80;99.90;;;;;;5047492;28;20216;-80
2021/03/27 08:16:32;;;;;;;7.63;6.87;;;10.70;99.90;;;;;;5052005;28;20253;-80
2021/03/27 08:19:40;;;;;;;6.83;6.40;;;10.70;99.90;;;;;;4969761;28;20202;-79
2021/03/27 08:22:29;;;;;;;6.77;6.30;;;10.80;99.90;;;;;;5060349;28;20210;-84
2021/03/27 08:25:02;;;;;;;6.97;6.50;;;11.50;99.90;;;;;;5047032;28;20208;-79
2021/03/27 08:28:04;;;;;;;2.73;2.40;;;11.80;99.90;;;;;;5050414;28;20216;-79
2021/03/27 08:31:12;;;;;;;3.10;2.80;;;12.10;99.90;;;;;;5051407;28;20567;-79
2021/03/27 08:34:04;;;;;;;2.30;2.10;;;12.10;99.90;;;;;;5017695;28;20744;-79
2021/03/27 08:36:53;;;;;;;2.00;1.90;;;12.10;99.90;;;;;;5004751;28;20228;-80
2021/03/27 08:40:05;;;;;;;2.30;2.10;;;12.40;99.90;;;;;;5060720;28;20580;-81
2021/03/27 08:43:23;;;;;;;4.77;4.47;;;12.70;99.90;;;;;;5058710;28;20267;-79
2021/03/27 08:46:32;;;;;;;6.70;6.20;;;13.00;99.90;;;;;;5059500;28;20199;-78
2021/03/27 08:49:29;;;;;;;6.70;6.30;;;13.30;99.90;;;;;;5058639;28;20298;-80
2021/03/27 08:52:06;;;;;;;6.93;6.23;;;13.60;99.90;;;;;;5044172;28;20221;-80
2021/03/27 08:54:53;;;;;;;6.83;6.30;;;13.50;99.90;;;;;;5045707;28;20200;-79
2021/03/27 08:58:04;;;;;;;6.80;6.20;;;14.00;99.90;;;;;;5043871;28;20280;-80
2021/03/27 09:01:07;;;;;;;6.33;5.93;;;14.20;99.90;;;;;;5015243;28;20214;-80
2021/03/27 09:04:16;;;;;;;6.67;6.27;;;14.40;99.90;;;;;;5045390;28;20253;-81
2021/03/27 09:07:09;;;;;;;6.47;6.00;;;14.40;99.90;;;;;;5065839;28;20218;-81
2021/03/27 09:10:08;;;;;;;6.70;6.20;;;13.40;99.90;;;;;;5056999;28;20205;-80
2021/03/27 09:12:55;;;;;;;6.60;6.20;;;13.30;99.90;;;;;;5055416;28;20199;-80
2021/03/27 09:15:47;;;;;;;6.53;6.13;;;12.70;99.90;;;;;;5053697;28;20556;-81
2021/03/27 09:18:55;;;;;;;7.20;6.50;;;12.50;99.90;;;;;;5055630;28;20215;-81
2021/03/27 09:21:40;;;;;;;6.30;6.00;;;12.80;99.90;;;;;;5036433;28;20209;-82
2021/03/27 09:24:24;;;;;;;6.30;5.90;;;12.60;99.90;;;;;;5057116;28;20223;-78
2021/03/27 09:27:14;;;;;;;6.20;5.87;;;12.30;99.90;;;;;;5051257;28;20220;-83
2021/03/27 09:30:06;;;;;;;6.50;5.90;;;12.50;99.90;;;;;;5056491;28;20206;-81
2021/03/27 09:32:48;;;;;;;6.73;6.33;;;13.30;99.90;;;;;;5047536;28;20595;-82
2021/03/27 09:36:01;;;;;;;7.03;6.50;;;13.50;99.90;;;;;;5044171;28;20200;-81
2021/03/27 09:38:48;;;;;;;6.60;6.20;;;13.40;99.90;;;;;;4994995;28;20249;-82
2021/03/27 09:41:49;;;;;;;7.00;6.60;;;13.00;99.90;;;;;;4994013;28;20277;-81
2021/03/27 09:44:29;;;;;;;6.90;6.40;;;12.60;99.90;;;;;;5050609;28;20211;-82
2021/03/27 09:47:16;;;;;;;6.83;6.43;;;12.70;99.90;;;;;;5043225;28;20601;-81
2021/03/27 09:49:58;;;;;;;6.50;6.10;;;12.30;99.90;;;;;;5052859;28;20295;-81
2021/03/27 09:52:40;;;;;;;6.83;6.43;;;12.20;99.90;;;;;;5053472;28;20221;-81
2021/03/27 09:55:44;;;;;;;6.23;5.90;;;12.50;99.90;;;;;;5051279;28;20197;-81
2021/03/27 09:58:23;;;;;;;6.97;6.33;;;12.40;99.90;;;;;;5052501;28;20217;-81
2021/03/27 10:01:06;;;;;;;6.30;5.90;;;12.10;99.90;;;;;;5054780;28;20247;-80
2021/03/27 10:03:38;;;;;;;6.43;6.10;;;11.80;99.90;;;;;;5055270;28;20201;-81
2021/03/27 10:06:29;;;;;;;6.40;5.90;;;12.00;99.90;;;;;;5053098;28;20199;-81
2021/03/27 10:09:04;;;;;;;6.60;6.20;;;12.30;99.90;;;;;;5036005;28;20210;-81
2021/03/27 10:11:35;;;;;;;6.80;6.40;;;12.40;99.90;;;;;;5053081;28;20557;-80
2021/03/27 10:14:14;;;;;;;6.50;6.10;;;12.50;99.90;;;;;;5048811;28;20276;-82
2021/03/27 10:16:45;;;;;;;7.13;6.60;;;12.80;99.90;;;;;;5047893;28;20216;-82
2021/03/27 10:19:41;;;;;;;7.10;6.60;;;13.00;99.90;;;;;;5052227;28;20222;-82
2021/03/27 10:22:18;;;;;;;6.50;6.00;;;13.00;99.90;;;;;;5041659;28;20257;-81
2021/03/27 10:24:48;;;;;;;6.30;5.90;;;12.70;99.90;;;;;;5049437;28;20194;-81
2021/03/27 10:27:22;;;;;;;6.67;6.07;;;12.30;99.90;;;;;;5049614;28;20716;-81
2021/03/27 10:29:57;;;;;;;6.60;6.00;;;12.40;99.90;;;;;;5043673;28;20192;-81
2021/03/27 10:33:03;;;;;;;6.40;6.00;;;12.40;99.90;;;;;;5051341;28;20273;-81
2021/03/27 10:35:55;;;;;;;6.30;6.00;;;12.40;99.90;;;;;;5049761;28;20195;-81
2021/03/27 10:38:46;;;;;;;6.23;5.83;;;12.10;99.90;;;;;;5053044;28;20196;-82
2021/03/27 10:41:24;;;;;;;6.60;6.20;;;11.80;99.90;;;;;;5051351;28;20617;-81
2021/03/27 10:44:01;;;;;;;6.20;5.80;;;11.60;99.90;;;;;;5055756;28;20206;-82
2021/03/27 10:46:34;;;;;;;6.30;5.90;;;12.10;99.90;;;;;;5045724;28;20224;-81
2021/03/27 10:49:27;;;;;;;6.03;5.73;;;12.60;99.90;;;;;;5053460;28;20196;-81
2021/03/27 10:52:29;;;;;;;6.30;5.90;;;13.10;99.90;;;;;;5033859;28;20215;-81
2021/03/27 10:55:30;;;;;;;6.70;6.30;;;13.10;99.90;;;;;;5049100;28;20210;-81
2021/03/27 10:58:42;;;;;;;6.30;5.90;;;13.00;99.90;;;;;;5051990;28;20212;-82
2021/03/27 11:01:41;;;;;;;6.50;6.00;;;12.90;99.90;;;;;;5049439;28;20193;-81
2021/03/27 11:04:58;;;;;;;6.17;5.80;;;12.90;99.90;;;;;;5047096;28;20194;-81
2021/03/27 11:07:50;;;;;;;5.90;5.50;;;12.70;99.90;;;;;;5068930;28;20240;-81
2021/03/27 11:11:01;;;;;;;6.00;5.70;;;12.70;99.90;;;;;;5046427;28;20242;-81
2021/03/27 11:14:06;;;;;;;6.00;5.60;;;12.50;99.90;;;;;;5031483;28;21229;-81
2021/03/27 11:17:24;;;;;;;5.83;5.50;;;12.20;99.90;;;;;;5046777;28;20242;-81
2021/03/27 11:20:21;;;;;;;5.80;5.50;;;12.20;99.90;;;;;;5002857;28;20244;-81
2021/03/27 11:23:14;;;;;;;6.10;5.60;;;12.30;99.90;;;;;;5047239;28;20206;-81
2021/03/27 11:26:14;;;;;;;6.10;5.80;;;12.40;99.90;;;;;;5054620;28;20212;-82
2021/03/27 11:28:47;;;;;;;6.70;6.20;;;12.80;99.90;;;;;;5055392;28;20248;-82
2021/03/27 11:31:28;;;;;;;6.40;6.00;;;13.20;99.90;;;;;;5059424;28;20210;-81
2021/03/27 11:34:04;;;;;;;6.50;6.10;;;13.30;99.90;;;;;;5058091;28;20220;-77
2021/03/27 11:36:39;;;;;;;6.00;5.67;;;13.20;99.90;;;;;;5053124;28;20219;-76
2021/03/27 11:39:17;;;;;;;6.33;5.93;;;13.10;99.40;;;;;;5053965;28;20207;-81
2021/03/27 11:41:54;;;;;;;6.13;5.60;;;13.10;98.40;;;;;;5043495;28;20202;-80
2021/03/27 11:44:34;;;;;;;6.60;6.00;;;12.90;97.70;;;;;;5049300;28;20249;-80
2021/03/27 11:47:06;;;;;;;6.00;5.60;;;12.70;98.00;;;;;;5048150;28;20652;-80
2021/03/27 11:49:42;;;;;;;6.03;5.63;;;12.60;98.50;;;;;;5053913;28;20203;-80
2021/03/27 11:52:22;;;;;;;5.90;5.60;;;12.50;98.40;;;;;;5058582;28;20233;-81
2021/03/27 11:54:53;;;;;;;5.93;5.50;;;12.40;98.60;;;;;;5056603;28;20521;-79
2021/03/27 11:57:35;;;;;;;5.70;5.33;;;12.60;97.90;;;;;;5057913;28;20222;-80
2021/03/27 12:03:22;;;;;;;6.10;5.70;;;12.60;98.30;;;;;;5043115;28;20201;-77
2021/03/27 12:05:51;;;;;;;6.00;5.50;;;12.50;98.20;;;;;;5053275;28;20701;-78
2021/03/27 12:08:24;;;;;;;6.50;5.90;;;12.70;98.10;;;;;;5055146;28;20227;-77
2021/03/27 12:11:00;;;;;;;6.00;5.50;;;12.70;97.50;;;;;;5050356;28;20209;-78
2021/03/27 12:13:35;;;;;;;6.17;5.60;;;12.90;97.80;;;;;;5053998;28;20202;-79
2021/03/27 12:16:16;;;;;;;5.80;5.40;;;12.80;97.60;;;;;;5054879;28;20255;-78
2021/03/27 12:19:00;;;;;;;5.70;5.30;;;12.80;97.80;;;;;;5045006;28;20259;-79
2021/03/27 12:21:30;;;;;;;5.90;5.40;;;12.80;96.70;;;;;;5054931;28;20657;-78
2021/03/27 12:24:04;;;;;;;6.57;6.17;;;12.90;96.80;;;;;;5052812;28;20249;-78
2021/03/27 12:26:42;;;;;;;6.00;5.70;;;13.10;96.70;;;;;;5053778;28;20218;-78
2021/03/27 12:29:16;;;;;;;6.67;6.27;;;13.20;97.30;;;;;;5050174;28;20202;-78
2021/03/27 12:32:09;;;;;;;6.10;5.70;;;13.40;97.50;;;;;;5047898;28;20211;-77
2021/03/27 12:34:38;;;;;;;6.10;5.70;;;13.40;96.70;;;;;;5051437;28;20200;-77
2021/03/27 12:37:14;;;;;;;6.37;5.97;;;13.60;96.60;;;;;;5051201;28;20218;-77
2021/03/27 12:39:52;;;;;;;2.53;2.43;;;13.70;95.70;;;;;;5044055;28;20564;-78
2021/03/27 12:42:22;;;;;;;1.73;1.63;;;13.90;95.80;;;;;;5053442;28;20197;-79
2021/03/27 12:44:55;;;;;;;1.90;1.60;;;13.70;95.10;;;;;;5054213;28;20195;-79
2021/03/27 12:47:44;;;;;;;2.40;1.80;;;13.60;94.90;;;;;;5052626;28;20236;-77
2021/03/27 12:50:29;;;;;;;3.47;2.10;;;13.60;94.60;;;;;;5050086;28;20201;-77
2021/03/27 12:53:38;;;;;;;3.63;1.73;;;13.50;94.80;;;;;;5049381;28;20223;-78
2021/03/27 12:56:16;;;;;;;3.03;1.80;;;13.50;93.80;;;;;;5002468;28;20627;-78
2021/03/27 12:59:01;;;;;;;4.50;1.90;;;13.50;94.30;;;;;;5043319;28;20199;-81
2021/03/27 13:01:39;;;;;;;2.60;2.00;;;13.60;93.90;;;;;;5049264;28;20535;-78
2021/03/27 13:04:30;;;;;;;3.23;1.90;;;13.60;94.10;;;;;;5053609;28;20199;-79
2021/03/27 13:07:14;;;;;;;2.50;1.50;;;13.60;93.30;;;;;;5052668;28;20223;-79
2021/03/27 13:10:14;;;;;;;1.83;1.50;;;13.60;92.90;;;;;;5047556;28;20191;-79
2021/03/27 13:12:50;;;;;;;3.40;1.80;;;13.50;93.10;;;;;;5065670;28;20242;-79
2021/03/27 13:15:38;;;;;;;2.27;1.80;;;13.40;93.50;;;;;;5050574;28;20194;-78
2021/03/27 13:18:42;;;;;;;2.80;1.83;;;13.10;93.10;;;;;;5049161;28;20691;-79
2021/03/27 13:21:19;;;;;;;2.00;1.80;;;13.20;93.70;;;;;;5061861;28;20214;-79
2021/03/27 13:23:51;;;;;;;3.40;2.00;;;13.20;93.80;;;;;;5052753;28;20668;-78
2021/03/27 13:26:22;;;;;;;2.33;1.70;;;13.10;93.50;;;;;;5049735;28;20234;-77
2021/03/27 13:28:58;;;;;;;2.23;1.73;;;13.10;94.10;;;;;;5051870;28;20687;-79
2021/03/27 13:31:34;;;;;;;2.00;1.80;;;13.10;94.40;;;;;;5050880;28;20230;-79
2021/03/27 13:34:06;;;;;;;3.37;1.90;;;13.10;94.50;;;;;;5054990;28;20195;-79
2021/03/27 13:36:35;;;;;;;2.17;1.77;;;13.10;94.60;;;;;;5050657;28;20220;-79
2021/03/27 13:39:24;;;;;;;2.03;1.70;;;13.10;94.60;;;;;;5053227;28;20225;-80
2021/03/27 13:42:04;;;;;;;2.40;1.80;;;12.90;94.30;;;;;;5051577;28;20191;-81
2021/03/27 13:44:48;;;;;;;2.60;2.03;;;13.00;95.50;;;;;;5052280;28;20290;-78
2021/03/27 13:47:28;;;;;;;2.60;1.77;;;13.00;95.40;;;;;;5050913;28;20219;-79
2021/03/27 13:50:01;;;;;;;2.10;1.63;;;12.80;95.10;;;;;;5051292;28;20581;-79
2021/03/27 13:52:34;;;;;;;3.23;2.20;;;12.80;96.30;;;;;;5052528;28;20232;-80
2021/03/27 13:55:29;;;;;;;3.47;2.23;;;12.80;96.70;;;;;;5046882;28;20210;-79
2021/03/27 13:58:03;;;;;;;3.03;1.80;;;12.90;96.60;;;;;;5050767;28;20237;-79
2021/03/27 14:00:35;;;;;;;3.63;1.67;;;12.80;96.60;;;;;;5051208;28;20200;-78
2021/03/27 14:03:11;;;;;;;1.70;1.60;;;12.50;95.80;;;;;;5046392;28;20194;-79
2021/03/27 14:05:56;;;;;;;2.20;2.00;;;12.30;96.30;;;;;;5047082;28;20193;-78
2021/03/27 14:08:37;;;;;;;3.03;1.80;;;12.10;95.20;;;;;;5051012;28;20212;-79
2021/03/27 14:11:10;;;;;;;1.80;1.70;;;12.10;96.00;;;;;;5049497;28;20210;-78
2021/03/27 14:13:42;;;;;;;2.27;1.60;;;12.10;96.40;;;;;;5047243;28;20661;-79
2021/03/27 14:16:34;;;;;;;4.77;1.77;;;12.10;95.90;;;;;;5051813;28;20189;-79